Time;durP1;ratioP1;P1;durP2;ratioP2;P2;SDS_P1;SDS_P2;PMS_P1;PMS_P2;Temp;Humidity;BMP_temperature;BMP_pressure;BME280_temperature;BME280_humidity;BME280_pressure;Samples;Min_cycle;Max_cycle;Signal;HPM_P1;HPM_P2
2023/03/21 00:00:27;;;;;;;2.05;1.30;;;9.10;99.90;;;8.61;100.00;97474.38;5004471;28;20486;-38
2023/03/21 00:02:53;;;;;;;1.90;1.40;;;9.10;99.90;;;8.60;100.00;97462.16;5004880;28;20040;-38
2023/03/21 00:05:19;;;;;;;2.75;1.52;;;9.10;99.90;;;8.59;100.00;97460.41;5003326;28;20461;-37
2023/03/21 00:07:46;;;;;;;3.08;1.65;;;9.10;99.90;;;8.58;100.00;97459.56;5001199;28;20092;-38
2023/03/21 00:10:12;;;;;;;3.00;1.77;;;9.10;99.90;;;8.58;100.00;97462.19;5009543;28;20036;-38
2023/03/21 00:12:37;;;;;;;2.33;1.42;;;9.10;99.90;;;8.54;100.00;97455.31;5005950;28;20428;-38
2023/03/21 00:15:08;;;;;;;1.80;1.40;;;9.10;99.90;;;8.57;100.00;97459.59;5003104;28;20229;-37
2023/03/21 00:17:35;;;;;;;2.25;1.58;;;9.10;99.90;;;8.59;100.00;97461.25;5022488;28;20029;-39
2023/03/21 00:20:13;;;;;;;2.95;1.70;;;9.10;99.90;;;8.42;100.00;97429.34;5014211;28;20048;-38
2023/03/21 00:22:40;;;;;;;3.80;1.77;;;9.10;99.90;;;8.58;100.00;97456.94;5015631;28;20081;-38
2023/03/21 00:25:08;;;;;;;1.67;1.35;;;9.10;99.90;;;8.51;100.00;97444.88;5009938;28;20037;-38
2023/03/21 00:27:34;;;;;;;3.80;1.70;;;9.10;99.90;;;8.57;100.00;97449.94;5019350;28;20034;-38
2023/03/21 00:30:00;;;;;;;2.20;1.63;;;9.10;99.90;;;8.56;100.00;97449.97;5015419;28;20052;-38
2023/03/21 00:32:26;;;;;;;2.80;1.80;;;9.10;99.90;;;8.54;100.00;97446.53;5013117;28;20042;-38
2023/03/21 00:34:52;;;;;;;2.88;1.73;;;9.00;99.90;;;8.51;100.00;97444.00;5017645;28;20025;-38
2023/03/21 00:37:18;;;;;;;2.60;1.60;;;9.00;99.90;;;8.50;100.00;97444.91;5018336;28;20057;-38
2023/03/21 00:39:47;;;;;;;3.38;1.90;;;9.00;99.90;;;8.49;100.00;97437.91;5014723;28;20025;-38
2023/03/21 00:42:14;;;;;;;3.00;1.70;;;9.00;99.90;;;8.47;100.00;97439.72;5012882;28;20030;-38
2023/03/21 00:44:41;;;;;;;2.55;1.60;;;9.00;99.90;;;8.46;100.00;97432.75;5009521;28;20033;-38
2023/03/21 00:47:08;;;;;;;2.33;1.77;;;9.00;99.90;;;8.44;100.00;97424.91;5005755;28;20191;-38
2023/03/21 00:49:34;;;;;;;2.83;1.40;;;9.00;99.90;;;8.20;100.00;97385.25;5006221;28;20029;-38
2023/03/21 00:52:00;;;;;;;2.42;1.52;;;9.00;99.90;;;8.43;100.00;97431.06;4989294;28;22592;-38
2023/03/21 00:54:26;;;;;;;3.42;1.60;;;9.00;99.90;;;8.41;100.00;97423.19;5001177;28;20199;-38
2023/03/21 00:56:52;;;;;;;3.90;1.70;;;8.90;99.90;;;8.39;100.00;97422.38;5003644;28;20584;-38
2023/03/21 00:59:18;;;;;;;2.17;1.48;;;8.90;99.90;;;8.38;100.00;97417.16;5006457;28;20036;-38
2023/03/21 01:01:45;;;;;;;2.42;1.70;;;8.90;99.90;;;8.22;100.00;97393.94;4999172;28;20228;-38
2023/03/21 01:04:15;;;;;;;3.63;1.85;;;8.90;99.90;;;8.36;100.00;97411.97;5001449;28;20048;-38
2023/03/21 01:06:42;;;;;;;3.28;1.60;;;8.90;99.90;;;8.35;100.00;97418.13;5007332;28;20033;-38
2023/03/21 01:09:17;;;;;;;2.25;1.40;;;8.90;99.90;;;8.33;100.00;97416.44;5020616;28;20037;-38
2023/03/21 01:11:44;;;;;;;2.40;1.75;;;8.90;99.90;;;8.29;100.00;97420.03;5016540;28;20041;-38
2023/03/21 01:14:11;;;;;;;4.40;1.83;;;8.80;99.90;;;8.24;100.00;97414.94;5017201;28;20108;-38
2023/03/21 01:16:37;;;;;;;1.63;1.52;;;8.80;99.90;;;8.20;100.00;97411.53;5015403;28;20505;-38
2023/03/21 01:19:05;;;;;;;2.35;1.90;;;8.70;99.90;;;8.18;100.00;97412.44;5021548;28;20030;-37
2023/03/21 01:21:32;;;;;;;2.63;1.80;;;8.70;99.90;;;8.16;100.00;97409.00;5017888;28;20029;-37
2023/03/21 01:23:57;;;;;;;3.42;1.85;;;8.70;99.90;;;8.14;100.00;97409.03;5020802;28;20128;-38
2023/03/21 01:26:23;;;;;;;4.85;2.38;;;8.70;99.90;;;8.14;100.00;97408.19;5016735;28;20215;-37
2023/03/21 01:28:49;;;;;;;3.40;2.03;;;8.70;99.90;;;8.12;100.00;97410.84;5014758;28;20460;-38
2023/03/21 01:31:16;;;;;;;4.10;2.53;;;8.70;99.90;;;8.12;100.00;97410.00;5018141;28;20033;-38
2023/03/21 01:33:43;;;;;;;4.13;2.50;;;8.70;99.90;;;8.13;100.00;97411.72;5014662;28;20397;-38
2023/03/21 01:36:16;;;;;;;4.38;2.70;;;8.70;99.90;;;8.11;100.00;97409.16;5018126;28;20032;-38
2023/03/21 01:38:42;;;;;;;5.15;3.20;;;8.70;99.90;;;8.11;100.00;97403.00;5017741;28;20302;-38
2023/03/21 01:41:19;;;;;;;5.97;3.75;;;8.60;99.90;;;8.13;100.00;97404.72;5019099;28;20021;-38
2023/03/21 01:43:44;;;;;;;5.50;3.47;;;8.70;99.90;;;8.14;100.00;97401.16;4995537;28;20152;-38
2023/03/21 01:46:24;;;;;;;8.57;4.40;;;8.70;99.90;;;8.16;100.00;97404.59;5010552;28;20025;-38
2023/03/21 01:48:59;;;;;;;7.15;4.30;;;8.70;99.90;;;8.18;100.00;97405.44;5019134;28;20064;-38
2023/03/21 01:51:27;;;;;;;6.20;4.20;;;8.70;99.90;;;8.20;100.00;97398.38;5017908;28;20166;-38
2023/03/21 01:53:54;;;;;;;7.68;4.38;;;8.70;99.90;;;8.19;100.00;97394.03;4995647;28;20022;-38
2023/03/21 01:56:27;;;;;;;6.32;3.92;;;8.70;99.90;;;8.22;100.00;97393.94;5011811;28;20057;-38
2023/03/21 01:59:02;;;;;;;6.03;4.32;;;8.80;99.90;;;8.22;100.00;97399.19;5014361;28;20064;-38
2023/03/21 02:01:30;;;;;;;6.60;4.15;;;8.80;99.90;;;8.25;100.00;97387.72;5034898;22;20071;-39
2023/03/21 02:03:56;;;;;;;5.85;4.10;;;8.80;99.90;;;8.24;100.00;97386.03;5050195;28;20046;-41
2023/03/21 02:06:33;;;;;;;7.43;4.40;;;8.80;99.90;;;8.22;100.00;97383.44;5057268;28;20075;-41
2023/03/21 02:09:08;;;;;;;8.13;4.32;;;8.80;99.90;;;8.22;100.00;97382.59;5062361;28;20043;-41
2023/03/21 02:11:35;;;;;;;6.45;4.55;;;8.70;99.90;;;8.18;100.00;97379.19;5055193;28;20028;-41
2023/03/21 02:14:01;;;;;;;6.15;4.30;;;8.70;99.90;;;8.17;100.00;97387.94;5013583;28;20405;-41
2023/03/21 02:16:55;;;;;;;7.38;3.55;;;8.70;99.90;;;8.15;100.00;97381.88;5034596;28;20056;-41
2023/03/21 02:20:13;;;;;;;7.55;4.40;;;8.70;99.90;;;8.12;100.00;97379.34;5038044;28;20123;-42
2023/03/21 02:23:22;;;;;;;7.22;4.32;;;8.60;99.90;;;8.09;100.00;97376.78;4988604;28;20045;-41
2023/03/21 02:26:36;;;;;;;6.88;3.88;;;8.60;99.90;;;8.04;100.00;97381.31;4974484;28;20029;-41
2023/03/21 02:29:14;;;;;;;7.50;4.47;;;8.60;99.90;;;8.07;100.00;97375.13;5044188;28;20029;-41
2023/03/21 02:32:21;;;;;;;6.07;4.13;;;8.60;99.90;;;8.05;100.00;97372.53;5032555;28;20037;-41
2023/03/21 02:35:25;;;;;;;8.88;4.60;;;8.60;99.90;;;8.02;100.00;97369.97;5031549;28;20102;-41
2023/03/21 02:38:06;;;;;;;6.25;4.63;;;8.50;99.90;;;8.01;100.00;97368.25;5030745;28;20536;-41
2023/03/21 02:40:45;;;;;;;8.13;4.72;;;8.50;99.90;;;7.87;100.00;97341.53;5027018;28;20630;-41
2023/03/21 02:43:27;;;;;;;7.88;4.30;;;8.50;99.90;;;8.00;100.00;97367.41;5048674;28;20037;-41
2023/03/21 02:46:20;;;;;;;5.82;4.18;;;8.50;99.90;;;7.92;100.00;97342.25;5023496;28;20041;-41
2023/03/21 02:48:59;;;;;;;8.27;4.40;;;8.50;99.90;;;7.81;100.00;97332.91;5033568;28;20092;-42
2023/03/21 02:51:28;;;;;;;7.05;4.20;;;8.50;99.90;;;7.97;100.00;97362.22;5031334;28;20033;-41
2023/03/21 02:54:11;;;;;;;6.60;4.50;;;8.50;99.90;;;7.97;100.00;97358.75;5040729;28;20389;-41
2023/03/21 02:56:39;;;;;;;9.07;4.70;;;8.50;99.90;;;7.90;100.00;97349.31;5026752;28;20075;-42
2023/03/21 02:59:06;;;;;;;5.82;4.72;;;8.50;99.90;;;7.95;100.00;97356.16;5027019;28;20040;-41
2023/03/21 03:01:32;;;;;;;6.55;4.10;;;8.50;99.90;;;7.94;100.00;97362.31;5031102;28;20029;-41
2023/03/21 03:03:59;;;;;;;8.25;4.10;;;8.50;99.90;;;7.95;100.00;97363.16;5027713;28;20534;-40
2023/03/21 03:06:38;;;;;;;7.40;4.35;;;8.50;99.90;;;7.87;100.00;97352.03;5028869;28;20068;-41
2023/03/21 03:09:43;;;;;;;5.63;4.10;;;8.50;99.90;;;7.92;100.00;97353.63;5029843;28;20044;-41
2023/03/21 03:12:49;;;;;;;7.63;4.25;;;8.50;99.90;;;7.90;100.00;97352.81;5024392;28;20032;-41
2023/03/21 03:15:22;;;;;;;6.47;3.88;;;8.40;99.90;;;7.89;100.00;97358.94;5027514;28;20037;-41
2023/03/21 03:18:00;;;;;;;5.85;3.80;;;8.40;99.90;;;7.89;100.00;97355.47;5026952;28;20064;-41
2023/03/21 03:20:44;;;;;;;7.63;4.38;;;8.40;99.90;;;7.86;100.00;97356.41;5027302;28;20043;-41
2023/03/21 03:23:37;;;;;;;5.10;3.95;;;8.40;99.90;;;7.85;100.00;97357.31;5028766;28;20108;-41
2023/03/21 03:26:34;;;;;;;7.70;4.25;;;8.40;99.90;;;7.84;100.00;97356.47;5032871;28;20301;-41
2023/03/21 03:29:08;;;;;;;6.97;4.32;;;8.40;99.90;;;7.82;100.00;97349.50;5026906;28;21055;-41
2023/03/21 03:31:42;;;;;;;7.03;4.20;;;8.40;99.90;;;7.83;100.00;97364.38;5036172;28;20059;-41
2023/03/21 03:34:16;;;;;;;6.45;4.40;;;8.40;99.90;;;7.81;100.00;97353.91;5042309;28;20551;-41
2023/03/21 03:36:50;;;;;;;8.57;4.30;;;8.40;99.90;;;7.76;100.00;97341.81;5031147;28;20041;-41
2023/03/21 03:39:17;;;;;;;7.53;4.28;;;8.40;99.90;;;7.79;100.00;97345.22;5044666;28;20037;-41
2023/03/21 03:41:49;;;;;;;6.05;3.85;;;8.30;99.90;;;7.76;100.00;97337.41;5032634;28;20036;-41
2023/03/21 03:44:15;;;;;;;7.10;4.40;;;8.30;99.90;;;7.79;100.00;97342.59;5026701;28;20084;-41
2023/03/21 03:46:51;;;;;;;5.95;4.18;;;8.30;99.90;;;7.78;100.00;97343.47;5026754;28;20065;-42
2023/03/21 03:49:23;;;;;;;6.20;4.00;;;8.30;99.90;;;7.74;100.00;97330.50;5045327;28;20040;-41
2023/03/21 03:52:25;;;;;;;6.32;3.92;;;8.30;99.90;;;7.76;100.00;97336.56;5023710;28;23198;-41
2023/03/21 03:54:51;;;;;;;6.93;3.95;;;8.30;99.90;;;7.72;100.00;97327.91;5026746;28;20047;-41
2023/03/21 03:57:18;;;;;;;5.97;3.47;;;8.30;99.90;;;7.72;100.00;97337.56;5034756;28;20025;-41
2023/03/21 03:59:45;;;;;;;6.40;3.60;;;8.30;99.90;;;7.72;100.00;97334.94;5042747;28;20340;-41
2023/03/21 04:02:12;;;;;;;5.93;3.35;;;8.30;99.90;;;7.71;100.00;97333.19;5034680;28;20060;-41
2023/03/21 04:04:39;;;;;;;4.30;2.85;;;8.30;99.90;;;7.70;100.00;97334.06;5029262;28;20606;-41
2023/03/21 04:07:05;;;;;;;7.05;3.53;;;8.30;99.90;;;7.63;100.00;97329.00;5032809;28;20512;-41
2023/03/21 04:09:31;;;;;;;4.28;3.00;;;8.20;99.90;;;7.68;100.00;97326.28;5026585;28;20044;-41
2023/03/21 04:11:57;;;;;;;3.83;3.00;;;8.20;99.90;;;7.66;100.00;97333.28;5024468;28;20059;-42
2023/03/21 04:14:24;;;;;;;4.70;3.05;;;8.20;99.90;;;7.61;100.00;97336.06;5024410;28;20132;-41
2023/03/21 04:16:50;;;;;;;4.30;2.90;;;8.20;99.90;;;7.57;100.00;97333.53;5022334;28;20025;-40
2023/03/21 04:19:17;;;;;;;4.00;2.70;;;8.10;99.90;;;7.53;100.00;97334.53;5025599;28;20029;-41
2023/03/21 04:21:45;;;;;;;4.38;3.03;;;8.10;99.90;;;7.47;100.00;97324.22;5026290;28;20418;-40
2023/03/21 04:24:12;;;;;;;4.80;2.88;;;8.00;99.90;;;7.38;100.00;97320.91;5018018;28;20053;-41
2023/03/21 04:26:39;;;;;;;4.47;3.03;;;7.90;99.90;;;7.28;100.00;97316.78;5023193;28;20033;-41
2023/03/21 04:29:05;;;;;;;4.68;3.03;;;7.90;99.90;;;7.23;100.00;97326.53;5024539;28;20040;-42
2023/03/21 04:31:32;;;;;;;4.82;3.10;;;7.80;99.90;;;7.17;100.00;97332.78;5022281;28;20476;-42
2023/03/21 04:34:00;;;;;;;5.30;3.10;;;7.70;99.90;;;7.05;100.00;97328.72;5021734;28;20068;-41
2023/03/21 04:36:29;;;;;;;3.90;2.90;;;7.60;99.90;;;6.94;100.00;97325.47;5019073;28;20040;-41
2023/03/21 04:38:59;;;;;;;5.35;3.42;;;7.50;99.90;;;6.83;100.00;97327.50;5020179;28;20044;-42
2023/03/21 04:41:27;;;;;;;5.88;3.25;;;7.40;99.90;;;6.76;100.00;97329.38;5024654;28;20573;-41
2023/03/21 04:43:53;;;;;;;4.28;2.90;;;7.40;99.90;;;6.69;100.00;97322.56;5025484;28;20036;-41
2023/03/21 04:46:19;;;;;;;5.72;2.83;;;7.30;99.90;;;6.57;100.00;97309.72;5023920;28;20044;-42
2023/03/21 04:48:46;;;;;;;4.13;2.80;;;7.20;99.90;;;6.56;100.00;97323.75;5025815;28;20032;-42
2023/03/21 04:51:12;;;;;;;4.97;2.85;;;7.10;99.90;;;6.50;100.00;97322.97;5033815;28;20499;-41
2023/03/21 04:53:38;;;;;;;3.78;2.78;;;7.10;99.90;;;6.47;100.00;97328.28;5035597;28;20475;-42
2023/03/21 04:56:05;;;;;;;3.63;2.50;;;7.10;99.90;;;6.47;100.00;97328.28;5033984;28;20086;-43
2023/03/21 04:58:31;;;;;;;6.28;2.83;;;7.10;99.90;;;6.45;100.00;97322.22;5030976;28;20037;-41
2023/03/21 05:00:56;;;;;;;5.85;2.80;;;7.10;99.90;;;6.45;100.00;97316.13;5029433;28;20041;-41
2023/03/21 05:03:23;;;;;;;4.15;2.47;;;7.10;99.90;;;6.46;100.00;97316.09;5037086;28;20353;-42
2023/03/21 05:05:49;;;;;;;3.00;2.50;;;7.10;99.90;;;6.51;100.00;97318.59;5033785;28;20039;-41
2023/03/21 05:08:15;;;;;;;3.92;2.45;;;7.10;99.90;;;6.52;100.00;97320.31;5032801;28;20029;-41
2023/03/21 05:10:42;;;;;;;3.83;2.53;;;7.10;99.90;;;6.55;100.00;97322.00;5030544;28;20140;-41
2023/03/21 05:13:07;;;;;;;3.70;2.28;;;7.10;99.90;;;6.58;100.00;97319.31;5045787;28;20040;-41
2023/03/21 05:15:33;;;;;;;3.30;2.50;;;7.10;99.90;;;6.61;100.00;97321.88;5028631;28;20029;-41
2023/03/21 05:18:10;;;;;;;3.67;2.58;;;7.20;99.90;;;6.64;100.00;97321.78;5032503;28;20028;-40
2023/03/21 05:20:41;;;;;;;3.13;2.45;;;7.20;99.90;;;6.67;100.00;97327.81;5035942;28;20036;-41
2023/03/21 05:23:09;;;;;;;3.45;2.40;;;7.20;99.90;;;6.68;100.00;97323.47;5032257;28;20031;-41
2023/03/21 05:25:36;;;;;;;4.53;2.53;;;7.20;99.90;;;6.65;100.00;97327.00;5023261;28;20032;-41
2023/03/21 05:28:05;;;;;;;3.38;2.30;;;7.20;99.90;;;6.64;100.00;97322.66;5033058;28;20696;-42
2023/03/21 05:30:31;;;;;;;5.43;2.88;;;7.20;99.90;;;6.64;100.00;97330.53;5030460;28;20036;-41
2023/03/21 05:32:57;;;;;;;3.58;2.42;;;7.20;99.90;;;6.63;100.00;97323.56;5032483;28;20034;-41
2023/03/21 05:35:23;;;;;;;3.00;2.50;;;7.20;99.90;;;6.68;100.00;97333.94;5035201;28;20503;-41
2023/03/21 05:37:48;;;;;;;3.33;2.42;;;7.20;99.90;;;6.58;100.00;97307.06;5026021;28;20511;-41
2023/03/21 05:40:14;;;;;;;5.03;2.85;;;7.30;99.90;;;6.79;100.00;97334.56;5028564;28;20033;-42
2023/03/21 05:42:40;;;;;;;3.95;2.60;;;7.30;99.90;;;6.86;100.00;97327.41;5028126;28;20047;-42
2023/03/21 05:45:06;;;;;;;6.28;2.50;;;7.40;99.90;;;6.97;100.00;97333.28;5024787;28;20039;-41
2023/03/21 05:47:32;;;;;;;3.00;2.45;;;7.50;99.90;;;7.06;100.00;97326.94;5028956;28;20044;-42
2023/03/21 05:49:57;;;;;;;4.10;2.83;;;7.60;99.90;;;7.06;100.00;97319.09;5024989;28;20033;-41
2023/03/21 05:52:23;;;;;;;3.20;2.40;;;7.70;99.90;;;7.20;100.00;97326.63;5035708;28;20048;-41
2023/03/21 05:54:49;;;;;;;3.65;2.20;;;7.80;99.90;;;7.32;100.00;97328.06;5027006;28;20044;-42
2023/03/21 05:57:14;;;;;;;3.72;2.08;;;7.90;99.90;;;7.40;100.00;97329.59;5023883;28;20029;-42
2023/03/21 05:59:40;;;;;;;3.92;2.63;;;7.90;99.90;;;7.41;100.00;97323.47;5026367;28;20453;-42
2023/03/21 06:02:06;;;;;;;3.65;2.65;;;8.00;99.90;;;7.54;100.00;97336.25;5019891;28;20534;-41
2023/03/21 06:04:32;;;;;;;4.28;2.40;;;8.10;99.90;;;7.60;100.00;97338.72;5028543;28;20787;-41
2023/03/21 06:06:58;;;;;;;3.42;2.33;;;8.20;99.90;;;7.70;100.00;97336.69;5023052;28;20239;-43
2023/03/21 06:09:24;;;;;;;3.35;2.45;;;8.20;99.90;;;7.72;100.00;97343.66;5029739;28;20111;-41
2023/03/21 06:11:54;;;;;;;5.18;2.83;;;8.20;99.90;;;7.60;100.00;97309.84;5026181;28;20028;-41
2023/03/21 06:14:20;;;;;;;3.55;2.63;;;8.30;99.90;;;7.75;100.00;97340.06;5008227;28;20048;-41
2023/03/21 06:16:46;;;;;;;2.65;2.30;;;8.30;99.90;;;7.71;100.00;97341.06;5028829;28;20060;-41
2023/03/21 06:19:12;;;;;;;3.55;2.53;;;8.30;99.90;;;7.73;100.00;97339.25;5033930;28;20465;-41
2023/03/21 06:21:38;;;;;;;3.83;2.15;;;8.20;99.90;;;7.71;100.00;97341.06;5030779;28;20033;-42
2023/03/21 06:24:04;;;;;;;4.40;2.47;;;8.20;99.90;;;7.70;100.00;97340.22;5024788;28;20052;-42
2023/03/21 06:26:29;;;;;;;3.47;2.40;;;8.20;99.90;;;7.66;100.00;97341.16;5029006;28;20021;-44
2023/03/21 06:28:56;;;;;;;3.38;2.13;;;8.20;99.90;;;7.64;100.00;97340.34;5027248;28;20473;-42
2023/03/21 06:31:23;;;;;;;3.08;2.15;;;8.10;99.90;;;7.62;100.00;97339.53;5035960;28;20029;-40
2023/03/21 06:33:50;;;;;;;4.50;2.40;;;8.10;99.90;;;7.58;100.00;97341.38;5034113;28;20199;-40
2023/03/21 06:36:16;;;;;;;3.60;1.90;;;8.10;99.90;;;7.56;100.00;97337.09;5028201;28;20040;-42
2023/03/21 06:38:42;;;;;;;2.90;2.10;;;8.10;99.90;;;7.53;100.00;97337.16;5031199;28;20033;-41
2023/03/21 06:41:09;;;;;;;3.80;2.10;;;8.10;99.90;;;7.51;100.00;97333.72;5037897;28;20029;-42
2023/03/21 06:43:35;;;;;;;5.07;2.00;;;8.00;99.90;;;7.51;100.00;97336.34;5029914;28;20045;-42
2023/03/21 06:46:02;;;;;;;2.40;1.77;;;8.00;99.90;;;7.52;100.00;97328.44;5030755;28;20037;-42
2023/03/21 06:48:28;;;;;;;2.67;2.00;;;8.10;99.90;;;7.53;100.00;97332.75;5035324;28;20290;-41
2023/03/21 06:50:54;;;;;;;4.45;1.95;;;8.10;99.90;;;7.58;100.00;97335.28;5031933;28;20729;-42
2023/03/21 06:53:23;;;;;;;3.58;2.25;;;8.10;99.90;;;7.62;100.00;97334.28;5030485;28;20035;-41
2023/03/21 06:55:50;;;;;;;3.33;2.50;;;8.10;99.90;;;7.69;100.00;97342.88;5030793;28;20094;-42
2023/03/21 06:58:16;;;;;;;2.92;1.83;;;8.20;99.90;;;7.75;100.00;97335.69;5030262;28;20061;-41
2023/03/21 07:00:43;;;;;;;4.05;2.25;;;8.20;99.90;;;7.81;100.00;97332.06;5029934;28;20412;-42
2023/03/21 07:03:10;;;;;;;2.65;2.10;;;8.30;99.90;;;7.91;100.00;97330.03;5030665;28;20049;-42
2023/03/21 07:05:37;;;;;;;3.95;2.13;;;8.40;99.90;;;7.86;100.00;97300.41;5031722;28;20284;-42
2023/03/21 07:08:05;;;;;;;4.57;2.00;;;8.50;99.90;;;8.19;100.00;97336.22;5027982;28;20214;-42
2023/03/21 07:10:31;;;;;;;2.47;2.10;;;8.70;99.90;;;8.35;100.00;97334.03;5033141;28;20546;-42
2023/03/21 07:13:00;;;;;;;2.55;1.90;;;8.80;99.90;;;8.51;100.00;97333.63;5032638;28;20029;-42
2023/03/21 07:15:25;;;;;;;2.83;1.80;;;9.00;99.90;;;8.66;100.00;97329.66;5029729;28;20074;-39
2023/03/21 07:17:51;;;;;;;2.63;1.90;;;9.20;99.90;;;8.78;100.00;97327.50;5030618;28;20778;-43
2023/03/21 07:20:17;;;;;;;4.55;1.90;;;9.30;99.90;;;8.85;100.00;97320.28;5034841;28;20122;-44
2023/03/21 07:22:43;;;;;;;2.88;2.10;;;9.40;99.90;;;9.00;100.00;97329.47;5030523;28;20046;-43
2023/03/21 07:25:10;;;;;;;4.85;2.50;;;9.50;99.90;;;9.08;100.00;97329.22;5032416;28;20040;-42
2023/03/21 07:27:35;;;;;;;5.05;2.25;;;9.60;99.90;;;9.11;100.00;97316.81;5034069;28;20082;-42
2023/03/21 07:30:05;;;;;;;3.88;2.17;;;9.70;99.90;;;9.14;100.00;97321.13;5032625;28;20549;-44
2023/03/21 07:32:36;;;;;;;4.22;2.22;;;9.70;99.90;;;9.13;100.00;97317.66;5031098;28;20025;-43
2023/03/21 07:35:02;;;;;;;4.30;2.22;;;9.70;99.90;;;9.19;100.00;97327.13;5034411;28;20052;-45
2023/03/21 07:37:28;;;;;;;6.20;1.92;;;9.70;99.90;;;9.21;100.00;97332.34;5031554;28;20029;-43
2023/03/21 07:39:54;;;;;;;3.40;2.00;;;9.80;99.90;;;9.29;100.00;97330.28;5031360;28;20029;-43
2023/03/21 07:42:20;;;;;;;3.60;2.17;;;9.80;99.90;;;9.39;100.00;97328.25;5047345;28;20369;-44
2023/03/21 07:44:46;;;;;;;5.30;2.10;;;9.90;99.90;;;9.48;100.00;97335.81;5022823;28;20342;-42
2023/03/21 07:47:11;;;;;;;4.07;2.20;;;10.00;99.90;;;9.55;100.00;97325.03;5030776;28;20472;-44
2023/03/21 07:49:37;;;;;;;2.97;2.10;;;10.10;99.90;;;9.64;100.00;97336.16;5036648;28;20029;-42
2023/03/21 07:52:05;;;;;;;2.33;1.95;;;10.20;99.90;;;9.70;100.00;97328.91;5031422;28;20064;-42
2023/03/21 07:54:31;;;;;;;3.25;2.00;;;10.30;99.90;;;9.86;100.00;97336.28;5028273;28;20159;-43
2023/03/21 07:56:56;;;;;;;2.97;2.22;;;10.30;99.90;;;9.87;100.00;97330.97;5028750;28;21518;-43
2023/03/21 07:59:22;;;;;;;3.67;2.13;;;10.40;99.90;;;9.94;100.00;97335.09;5031270;28;20055;-42
2023/03/21 08:01:48;;;;;;;2.63;2.00;;;10.40;99.90;;;9.96;100.00;97337.69;5029055;28;20037;-42
2023/03/21 08:04:14;;;;;;;5.93;2.33;;;10.50;99.90;;;10.05;100.00;97339.97;5032872;28;20032;-42
2023/03/21 08:06:40;;;;;;;4.85;2.33;;;10.50;99.90;;;10.06;100.00;97335.56;5033685;28;20108;-43
2023/03/21 08:09:06;;;;;;;3.72;2.25;;;10.60;99.90;;;10.06;100.00;97331.16;5033376;28;20083;-43
2023/03/21 08:11:31;;;;;;;4.93;2.00;;;10.60;99.90;;;10.10;100.00;97330.13;5027508;28;20148;-44
2023/03/21 08:13:58;;;;;;;3.22;1.92;;;10.60;99.90;;;10.11;100.00;97328.34;5025585;28;20029;-42
2023/03/21 08:16:24;;;;;;;4.05;2.47;;;10.60;99.90;;;10.16;100.00;97329.06;5033179;28;20543;-44
2023/03/21 08:18:50;;;;;;;4.45;3.10;;;10.70;99.90;;;10.23;100.00;97327.03;5035180;28;20125;-43
2023/03/21 08:21:16;;;;;;;4.13;2.42;;;10.70;99.90;;;10.25;100.00;97331.34;5034273;28;20082;-42
2023/03/21 08:23:42;;;;;;;6.35;3.20;;;10.80;99.90;;;10.19;100.00;97318.38;5038473;28;20061;-43
2023/03/21 08:26:09;;;;;;;6.75;2.90;;;10.80;99.90;;;10.34;100.00;97318.75;5038726;28;20782;-43
2023/03/21 08:28:36;;;;;;;6.65;3.03;;;10.80;99.90;;;10.42;100.00;97325.47;5028460;28;20186;-45
2023/03/21 08:31:08;;;;;;;4.90;3.28;;;11.00;99.90;;;10.55;98.97;97319.72;5037104;28;20120;-43
2023/03/21 08:33:33;;;;;;;5.10;3.10;;;11.10;99.90;;;10.52;98.00;97304.91;5035970;28;20121;-43
2023/03/21 08:36:00;;;;;;;3.05;2.40;;;11.20;99.90;;;10.72;96.36;97327.03;5032660;28;20033;-43
2023/03/21 08:38:28;;;;;;;5.50;2.58;;;11.20;99.90;;;10.81;94.30;97322.22;5039385;28;20037;-44
2023/03/21 08:40:55;;;;;;;7.18;2.65;;;11.30;99.90;;;10.94;94.15;97317.31;5038684;28;20672;-43
2023/03/21 08:43:22;;;;;;;3.70;2.40;;;11.40;99.90;;;11.07;93.91;97315.94;5035320;28;20025;-43
2023/03/21 08:45:48;;;;;;;2.90;2.17;;;11.60;99.90;;;11.20;91.33;97311.00;5030105;28;20032;-43
2023/03/21 08:48:14;;;;;;;5.15;2.00;;;11.70;99.90;;;11.33;88.13;97307.88;5030485;28;20416;-44
2023/03/21 08:50:40;;;;;;;3.85;2.25;;;11.80;99.90;;;11.37;85.82;97309.44;5035185;28;20024;-45
2023/03/21 08:53:05;;;;;;;3.20;1.98;;;11.90;99.90;;;11.40;86.56;97304.06;5033809;28;20527;-43
2023/03/21 08:55:32;;;;;;;4.10;2.10;;;11.90;99.90;;;11.44;85.30;97297.72;5030277;28;20049;-43
2023/03/21 08:57:58;;;;;;;4.75;1.48;;;11.90;99.90;;;11.55;77.01;97299.91;5028038;28;20111;-44
2023/03/21 09:00:24;;;;;;;2.85;1.60;;;12.00;99.90;;;11.56;77.27;97273.44;5030798;28;20510;-39
2023/03/21 09:02:53;;;;;;;2.40;1.30;;;12.20;99.90;;;11.87;74.37;97297.66;5039499;28;20036;-42
2023/03/21 09:05:20;;;;;;;2.58;1.40;;;12.30;99.90;;;12.06;68.61;97306.53;5036781;28;20071;-40
2023/03/21 09:07:48;;;;;;;2.58;1.35;;;12.50;99.90;;;12.29;62.91;97296.69;5036743;28;20032;-41
2023/03/21 09:10:18;;;;;;;2.88;1.33;;;12.70;99.90;;;12.37;61.63;97297.22;5034818;28;20543;-40
2023/03/21 09:12:43;;;;;;;2.40;1.42;;;12.80;99.90;;;12.51;62.41;97291.28;5035371;28;20045;-46
2023/03/21 09:15:11;;;;;;;2.45;1.50;;;13.00;99.90;;;12.68;61.46;97298.44;5027213;28;20032;-47
2023/03/21 09:17:42;;;;;;;1.70;1.20;;;13.10;99.90;;;12.78;59.74;97311.16;5037842;28;20025;-47
2023/03/21 09:20:17;;;;;;;2.45;1.13;;;13.20;99.90;;;12.78;52.25;97313.81;5033306;28;20125;-47
2023/03/21 09:22:49;;;;;;;2.50;1.13;;;13.30;99.90;;;12.86;52.31;97309.94;5037845;28;20658;-45
2023/03/21 09:25:15;;;;;;;2.38;1.20;;;13.40;99.90;;;12.93;53.02;97306.06;5036565;28;20033;-43
2023/03/21 09:27:47;;;;;;;5.28;1.80;;;13.50;99.90;;;12.99;53.15;97308.41;5037555;28;20480;-47
2023/03/21 09:30:20;;;;;;;4.47;1.15;;;13.50;99.90;;;13.01;52.25;97303.91;5037775;28;20037;-47
2023/03/21 09:32:47;;;;;;;2.78;1.50;;;13.50;99.90;;;13.07;54.54;97297.47;5031777;28;20044;-45
2023/03/21 09:35:18;;;;;;;4.47;1.38;;;13.50;99.90;;;13.24;55.22;97304.56;5029965;28;20029;-43
2023/03/21 09:37:48;;;;;;;2.72;1.50;;;13.60;99.90;;;13.41;54.58;97296.69;5034101;28;20401;-43
2023/03/21 09:40:41;;;;;;;2.72;1.30;;;13.80;99.90;;;13.67;54.79;97302.44;5036497;28;20021;-44
2023/03/21 09:43:40;;;;;;;4.07;1.40;;;14.10;99.90;;;13.84;55.31;97299.81;5031724;28;20025;-43
2023/03/21 09:46:20;;;;;;;3.95;1.35;;;14.30;99.90;;;14.03;55.14;97297.06;5046659;28;20511;-44
2023/03/21 09:49:01;;;;;;;3.65;1.20;;;14.50;99.90;;;14.27;53.25;97302.00;5033454;28;20128;-44
2023/03/21 09:51:41;;;;;;;3.58;1.55;;;14.70;99.90;;;14.13;51.14;97295.63;5033239;28;20311;-43
2023/03/21 09:54:32;;;;;;;3.30;1.58;;;14.80;99.80;;;14.33;52.33;97294.56;5027699;28;20064;-46
2023/03/21 09:57:06;;;;;;;2.88;1.30;;;14.90;99.90;;;14.38;49.35;97294.31;5033044;28;20493;-43
2023/03/21 09:59:40;;;;;;;1.38;0.98;;;15.00;99.20;;;14.66;50.11;97293.72;5036674;28;20033;-43
2023/03/21 10:02:38;;;;;;;2.58;1.30;;;15.20;99.50;;;15.02;48.71;97289.94;5036929;28;20480;-44
2023/03/21 10:05:32;;;;;;;5.97;2.00;;;15.50;98.60;;;14.91;47.44;97292.31;5024989;28;23008;-43
2023/03/21 10:08:21;;;;;;;2.75;1.30;;;15.50;96.90;;;15.13;48.59;97280.47;5033425;28;20135;-45
2023/03/21 10:10:57;;;;;;;3.58;1.02;;;15.50;97.80;;;15.28;48.94;97280.47;5033473;28;20531;-44
2023/03/21 10:13:34;;;;;;;3.13;1.23;;;15.60;98.00;;;15.32;48.18;97272.31;5036103;28;20489;-43
2023/03/21 10:16:16;;;;;;;4.13;1.45;;;15.70;97.50;;;15.41;48.21;97274.44;5031221;28;20051;-43
2023/03/21 10:18:43;;;;;;;1.90;1.30;;;15.70;97.00;;;15.52;46.69;97261.38;5023001;28;20031;-44
2023/03/21 10:21:19;;;;;;;1.92;1.40;;;15.80;96.40;;;15.62;46.14;97269.66;5029642;28;20033;-47
2023/03/21 10:23:45;;;;;;;1.50;1.23;;;16.00;95.70;;;15.63;48.01;97260.72;5046896;28;20573;-47
2023/03/21 10:26:11;;;;;;;1.30;1.10;;;16.10;96.80;;;15.71;47.00;97261.13;5029834;28;20040;-47
2023/03/21 10:28:40;;;;;;;3.70;1.30;;;16.10;96.00;;;15.62;45.55;97261.69;5032243;28;20056;-43
2023/03/21 10:31:09;;;;;;;2.30;1.13;;;16.20;95.00;;;15.69;45.76;97263.03;5033778;28;20029;-44
2023/03/21 10:33:38;;;;;;;1.52;1.00;;;16.20;95.10;;;15.87;47.62;97254.94;5034004;28;20025;-45
2023/03/21 10:36:12;;;;;;;1.77;1.02;;;16.30;95.70;;;15.93;48.23;97246.59;5031301;28;20159;-45